sensor_id;sensor_type;location;lat;lon;timestamp;P1;durP1;ratioP1;P2;durP2;ratioP2
13309;SDS011;6723;48.256;16.402;2024-03-23T00:54:29;12.57;;;8.37;;
13309;SDS011;6723;48.256;16.402;2024-03-23T00:56:55;16.07;;;8.97;;
13309;SDS011;6723;48.256;16.402;2024-03-23T00:59:24;12.30;;;9.40;;
13309;SDS011;6723;48.256;16.402;2024-03-23T01:01:53;13.13;;;10.20;;
13309;SDS011;6723;48.256;16.402;2024-03-23T01:04:22;13.17;;;10.13;;
13309;SDS011;6723;48.256;16.402;2024-03-23T01:06:48;12.80;;;9.83;;
13309;SDS011;6723;48.256;16.402;2024-03-23T01:09:14;13.97;;;10.20;;
13309;SDS011;6723;48.256;16.402;2024-03-23T01:11:42;12.77;;;10.63;;
13309;SDS011;6723;48.256;16.402;2024-03-23T01:14:08;16.30;;;10.87;;
13309;SDS011;6723;48.256;16.402;2024-03-23T01:16:34;14.23;;;11.10;;
13309;SDS011;6723;48.256;16.402;2024-03-23T01:19:00;14.67;;;11.83;;
13309;SDS011;6723;48.256;16.402;2024-03-23T01:21:26;17.87;;;10.93;;
13309;SDS011;6723;48.256;16.402;2024-03-23T01:23:52;18.03;;;11.47;;
13309;SDS011;6723;48.256;16.402;2024-03-23T01:26:18;18.77;;;11.23;;
13309;SDS011;6723;48.256;16.402;2024-03-23T01:28:44;24.40;;;11.90;;
13309;SDS011;6723;48.256;16.402;2024-03-23T01:31:09;17.83;;;11.47;;
13309;SDS011;6723;48.256;16.402;2024-03-23T01:33:35;17.47;;;11.57;;
13309;SDS011;6723;48.256;16.402;2024-03-23T01:36:01;21.13;;;11.63;;
13309;SDS011;6723;48.256;16.402;2024-03-23T01:38:27;18.27;;;11.33;;
13309;SDS011;6723;48.256;16.402;2024-03-23T01:40:56;15.17;;;10.63;;
13309;SDS011;6723;48.256;16.402;2024-03-23T01:43:22;20.97;;;11.17;;
13309;SDS011;6723;48.256;16.402;2024-03-23T01:45:48;14.83;;;11.30;;
13309;SDS011;6723;48.256;16.402;2024-03-23T01:48:15;15.47;;;11.47;;
13309;SDS011;6723;48.256;16.402;2024-03-23T01:50:40;14.50;;;10.70;;
13309;SDS011;6723;48.256;16.402;2024-03-23T01:53:06;14.00;;;10.97;;
13309;SDS011;6723;48.256;16.402;2024-03-23T01:55:32;13.10;;;10.50;;
13309;SDS011;6723;48.256;16.402;2024-03-23T01:57:58;14.37;;;10.93;;
13309;SDS011;6723;48.256;16.402;2024-03-23T02:00:24;17.17;;;11.43;;
13309;SDS011;6723;48.256;16.402;2024-03-23T02:02:52;12.57;;;10.87;;
13309;SDS011;6723;48.256;16.402;2024-03-23T02:05:17;13.27;;;11.20;;
13309;SDS011;6723;48.256;16.402;2024-03-23T02:07:43;16.93;;;11.73;;
13309;SDS011;6723;48.256;16.402;2024-03-23T02:10:09;12.83;;;10.90;;
13309;SDS011;6723;48.256;16.402;2024-03-23T02:12:38;13.47;;;11.63;;
13309;SDS011;6723;48.256;16.402;2024-03-23T02:15:04;14.90;;;11.03;;
13309;SDS011;6723;48.256;16.402;2024-03-23T02:17:34;14.27;;;11.07;;
13309;SDS011;6723;48.256;16.402;2024-03-23T02:20:00;14.83;;;11.20;;
13309;SDS011;6723;48.256;16.402;2024-03-23T02:22:37;14.63;;;11.60;;
13309;SDS011;6723;48.256;16.402;2024-03-23T02:25:04;15.13;;;10.77;;
13309;SDS011;6723;48.256;16.402;2024-03-23T02:27:30;12.20;;;10.90;;
13309;SDS011;6723;48.256;16.402;2024-03-23T02:29:56;14.87;;;11.00;;
13309;SDS011;6723;48.256;16.402;2024-03-23T02:32:22;14.30;;;10.67;;
13309;SDS011;6723;48.256;16.402;2024-03-23T02:34:48;14.63;;;11.37;;
13309;SDS011;6723;48.256;16.402;2024-03-23T02:37:14;13.53;;;11.30;;
13309;SDS011;6723;48.256;16.402;2024-03-23T02:39:39;14.40;;;11.90;;
13309;SDS011;6723;48.256;16.402;2024-03-23T02:42:05;15.50;;;11.40;;
13309;SDS011;6723;48.256;16.402;2024-03-23T02:44:31;15.57;;;11.00;;
13309;SDS011;6723;48.256;16.402;2024-03-23T02:46:57;14.67;;;11.33;;
13309;SDS011;6723;48.256;16.402;2024-03-23T02:49:23;19.53;;;11.97;;
13309;SDS011;6723;48.256;16.402;2024-03-23T02:51:48;16.03;;;11.00;;
13309;SDS011;6723;48.256;16.402;2024-03-23T02:54:14;16.37;;;11.57;;
13309;SDS011;6723;48.256;16.402;2024-03-23T02:56:40;13.03;;;11.00;;
13309;SDS011;6723;48.256;16.402;2024-03-23T02:59:06;13.17;;;11.40;;
13309;SDS011;6723;48.256;16.402;2024-03-23T03:01:32;13.50;;;11.30;;
13309;SDS011;6723;48.256;16.402;2024-03-23T03:03:57;12.80;;;11.07;;
13309;SDS011;6723;48.256;16.402;2024-03-23T03:06:24;13.43;;;11.20;;
13309;SDS011;6723;48.256;16.402;2024-03-23T03:08:50;15.43;;;11.30;;
13309;SDS011;6723;48.256;16.402;2024-03-23T03:11:16;16.00;;;11.50;;
13309;SDS011;6723;48.256;16.402;2024-03-23T03:13:42;14.33;;;11.00;;
13309;SDS011;6723;48.256;16.402;2024-03-23T03:16:09;16.83;;;11.50;;
13309;SDS011;6723;48.256;16.402;2024-03-23T03:18:35;16.33;;;11.77;;
13309;SDS011;6723;48.256;16.402;2024-03-23T03:21:01;17.43;;;12.00;;
13309;SDS011;6723;48.256;16.402;2024-03-23T03:23:27;16.47;;;11.33;;
13309;SDS011;6723;48.256;16.402;2024-03-23T03:25:54;15.73;;;11.60;;
13309;SDS011;6723;48.256;16.402;2024-03-23T03:28:19;16.00;;;11.27;;
13309;SDS011;6723;48.256;16.402;2024-03-23T03:30:46;16.07;;;11.87;;
13309;SDS011;6723;48.256;16.402;2024-03-23T03:33:11;13.17;;;11.57;;
13309;SDS011;6723;48.256;16.402;2024-03-23T03:35:37;15.70;;;12.23;;
13309;SDS011;6723;48.256;16.402;2024-03-23T03:38:04;13.50;;;11.23;;
13309;SDS011;6723;48.256;16.402;2024-03-23T03:40:30;15.43;;;11.13;;
13309;SDS011;6723;48.256;16.402;2024-03-23T03:42:56;15.37;;;12.07;;
13309;SDS011;6723;48.256;16.402;2024-03-23T03:45:21;17.63;;;12.07;;
13309;SDS011;6723;48.256;16.402;2024-03-23T03:47:47;14.53;;;12.00;;
13309;SDS011;6723;48.256;16.402;2024-03-23T03:50:13;13.87;;;11.03;;
13309;SDS011;6723;48.256;16.402;2024-03-23T03:52:42;15.30;;;11.53;;
13309;SDS011;6723;48.256;16.402;2024-03-23T03:55:12;15.10;;;11.50;;
13309;SDS011;6723;48.256;16.402;2024-03-23T03:57:39;14.70;;;11.23;;
13309;SDS011;6723;48.256;16.402;2024-03-23T04:00:05;15.17;;;11.40;;
13309;SDS011;6723;48.256;16.402;2024-03-23T04:02:36;16.53;;;11.57;;
13309;SDS011;6723;48.256;16.402;2024-03-23T04:05:02;14.47;;;11.13;;
13309;SDS011;6723;48.256;16.402;2024-03-23T04:07:28;15.27;;;11.60;;
13309;SDS011;6723;48.256;16.402;2024-03-23T04:09:54;13.23;;;11.20;;
13309;SDS011;6723;48.256;16.402;2024-03-23T04:12:19;15.57;;;11.20;;
13309;SDS011;6723;48.256;16.402;2024-03-23T04:14:45;16.17;;;11.30;;
13309;SDS011;6723;48.256;16.402;2024-03-23T04:17:11;13.73;;;10.80;;
13309;SDS011;6723;48.256;16.402;2024-03-23T04:19:37;13.80;;;11.03;;
13309;SDS011;6723;48.256;16.402;2024-03-23T04:22:03;13.70;;;10.83;;
13309;SDS011;6723;48.256;16.402;2024-03-23T04:24:30;18.33;;;11.43;;
13309;SDS011;6723;48.256;16.402;2024-03-23T04:26:56;17.10;;;11.50;;
13309;SDS011;6723;48.256;16.402;2024-03-23T04:29:21;15.93;;;11.57;;
13309;SDS011;6723;48.256;16.402;2024-03-23T04:31:52;13.57;;;11.27;;
13309;SDS011;6723;48.256;16.402;2024-03-23T04:34:17;16.90;;;12.27;;
13309;SDS011;6723;48.256;16.402;2024-03-23T04:36:44;14.23;;;11.90;;
13309;SDS011;6723;48.256;16.402;2024-03-23T04:39:09;17.73;;;12.40;;
13309;SDS011;6723;48.256;16.402;2024-03-23T04:41:35;13.53;;;11.00;;
13309;SDS011;6723;48.256;16.402;2024-03-23T04:44:01;15.13;;;11.80;;
13309;SDS011;6723;48.256;16.402;2024-03-23T04:46:27;13.90;;;10.97;;
13309;SDS011;6723;48.256;16.402;2024-03-23T04:48:53;17.87;;;11.40;;
13309;SDS011;6723;48.256;16.402;2024-03-23T04:51:22;15.20;;;12.20;;
13309;SDS011;6723;48.256;16.402;2024-03-23T04:53:48;13.00;;;11.07;;
13309;SDS011;6723;48.256;16.402;2024-03-23T04:56:15;14.73;;;11.17;;
13309;SDS011;6723;48.256;16.402;2024-03-23T04:58:42;12.73;;;11.33;;
13309;SDS011;6723;48.256;16.402;2024-03-23T05:01:08;20.00;;;11.60;;
13309;SDS011;6723;48.256;16.402;2024-03-23T05:03:34;14.30;;;11.93;;
13309;SDS011;6723;48.256;16.402;2024-03-23T05:05:59;12.23;;;10.93;;
13309;SDS011;6723;48.256;16.402;2024-03-23T05:08:25;15.90;;;11.70;;
13309;SDS011;6723;48.256;16.402;2024-03-23T05:10:54;14.67;;;11.43;;
13309;SDS011;6723;48.256;16.402;2024-03-23T05:13:19;13.33;;;11.40;;
13309;SDS011;6723;48.256;16.402;2024-03-23T05:15:50;13.43;;;11.20;;
13309;SDS011;6723;48.256;16.402;2024-03-23T05:18:20;17.07;;;11.90;;
13309;SDS011;6723;48.256;16.402;2024-03-23T05:20:46;14.23;;;11.77;;
13309;SDS011;6723;48.256;16.402;2024-03-23T05:23:12;13.27;;;11.77;;
13309;SDS011;6723;48.256;16.402;2024-03-23T05:25:38;14.40;;;12.47;;
13309;SDS011;6723;48.256;16.402;2024-03-23T05:28:04;16.03;;;12.30;;
13309;SDS011;6723;48.256;16.402;2024-03-23T05:30:30;13.90;;;11.97;;
13309;SDS011;6723;48.256;16.402;2024-03-23T05:32:56;13.80;;;11.93;;
13309;SDS011;6723;48.256;16.402;2024-03-23T05:35:22;14.90;;;12.03;;
13309;SDS011;6723;48.256;16.402;2024-03-23T05:37:48;15.33;;;11.80;;
13309;SDS011;6723;48.256;16.402;2024-03-23T05:40:13;15.47;;;12.53;;
13309;SDS011;6723;48.256;16.402;2024-03-23T05:42:40;14.67;;;12.50;;
13309;SDS011;6723;48.256;16.402;2024-03-23T05:45:06;16.07;;;12.47;;
13309;SDS011;6723;48.256;16.402;2024-03-23T05:47:33;18.87;;;12.87;;
13309;SDS011;6723;48.256;16.402;2024-03-23T05:50:02;15.23;;;12.70;;
13309;SDS011;6723;48.256;16.402;2024-03-23T05:52:28;15.63;;;13.10;;
13309;SDS011;6723;48.256;16.402;2024-03-23T05:54:53;14.70;;;12.50;;
13309;SDS011;6723;48.256;16.402;2024-03-23T05:57:19;14.80;;;11.93;;
13309;SDS011;6723;48.256;16.402;2024-03-23T05:59:45;16.93;;;12.70;;
13309;SDS011;6723;48.256;16.402;2024-03-23T06:02:11;15.20;;;11.57;;
13309;SDS011;6723;48.256;16.402;2024-03-23T06:04:37;14.60;;;11.97;;
13309;SDS011;6723;48.256;16.402;2024-03-23T06:07:03;16.37;;;11.47;;
13309;SDS011;6723;48.256;16.402;2024-03-23T06:09:38;15.03;;;10.93;;
13309;SDS011;6723;48.256;16.402;2024-03-23T06:12:05;15.13;;;11.30;;
13309;SDS011;6723;48.256;16.402;2024-03-23T06:14:31;13.83;;;10.77;;
13309;SDS011;6723;48.256;16.402;2024-03-23T06:16:58;14.53;;;11.57;;
13309;SDS011;6723;48.256;16.402;2024-03-23T06:19:25;16.33;;;11.10;;
13309;SDS011;6723;48.256;16.402;2024-03-23T06:21:54;12.27;;;10.93;;
13309;SDS011;6723;48.256;16.402;2024-03-23T06:24:23;13.63;;;11.20;;
13309;SDS011;6723;48.256;16.402;2024-03-23T06:26:49;14.13;;;11.30;;
13309;SDS011;6723;48.256;16.402;2024-03-23T06:29:15;16.93;;;11.27;;
13309;SDS011;6723;48.256;16.402;2024-03-23T06:31:41;14.50;;;10.73;;
13309;SDS011;6723;48.256;16.402;2024-03-23T06:34:07;14.33;;;11.07;;
13309;SDS011;6723;48.256;16.402;2024-03-23T06:36:32;16.90;;;10.17;;
13309;SDS011;6723;48.256;16.402;2024-03-23T06:38:58;16.03;;;11.10;;
13309;SDS011;6723;48.256;16.402;2024-03-23T06:41:24;14.07;;;10.47;;
13309;SDS011;6723;48.256;16.402;2024-03-23T06:43:51;13.43;;;10.13;;
13309;SDS011;6723;48.256;16.402;2024-03-23T06:46:17;14.27;;;11.07;;
13309;SDS011;6723;48.256;16.402;2024-03-23T06:48:46;14.50;;;10.73;;
13309;SDS011;6723;48.256;16.402;2024-03-23T06:51:11;12.53;;;10.03;;
13309;SDS011;6723;48.256;16.402;2024-03-23T06:53:37;13.93;;;10.23;;
13309;SDS011;6723;48.256;16.402;2024-03-23T06:56:06;15.90;;;9.67;;
13309;SDS011;6723;48.256;16.402;2024-03-23T06:58:31;15.53;;;10.50;;
13309;SDS011;6723;48.256;16.402;2024-03-23T07:00:58;14.03;;;9.83;;
13309;SDS011;6723;48.256;16.402;2024-03-23T07:03:23;12.90;;;9.53;;
13309;SDS011;6723;48.256;16.402;2024-03-23T07:05:51;11.00;;;9.60;;
13309;SDS011;6723;48.256;16.402;2024-03-23T07:08:16;10.77;;;9.63;;
13309;SDS011;6723;48.256;16.402;2024-03-23T07:10:46;11.67;;;9.20;;
13309;SDS011;6723;48.256;16.402;2024-03-23T07:13:12;14.47;;;11.53;;
13309;SDS011;6723;48.256;16.402;2024-03-23T07:15:38;19.93;;;14.50;;
13309;SDS011;6723;48.256;16.402;2024-03-23T07:18:03;17.33;;;13.00;;
13309;SDS011;6723;48.256;16.402;2024-03-23T07:20:29;15.63;;;11.73;;
13309;SDS011;6723;48.256;16.402;2024-03-23T07:22:56;10.97;;;8.70;;
13309;SDS011;6723;48.256;16.402;2024-03-23T07:25:22;11.20;;;8.50;;
13309;SDS011;6723;48.256;16.402;2024-03-23T07:27:48;10.20;;;9.00;;
13309;SDS011;6723;48.256;16.402;2024-03-23T07:30:15;12.23;;;9.90;;
13309;SDS011;6723;48.256;16.402;2024-03-23T07:32:40;14.93;;;9.53;;
13309;SDS011;6723;48.256;16.402;2024-03-23T07:35:09;13.73;;;10.60;;
13309;SDS011;6723;48.256;16.402;2024-03-23T07:37:35;12.77;;;10.13;;
13309;SDS011;6723;48.256;16.402;2024-03-23T07:40:01;9.60;;;8.23;;
13309;SDS011;6723;48.256;16.402;2024-03-23T07:42:27;11.47;;;9.20;;
13309;SDS011;6723;48.256;16.402;2024-03-23T07:44:54;11.83;;;10.17;;
13309;SDS011;6723;48.256;16.402;2024-03-23T07:47:22;13.00;;;9.23;;
13309;SDS011;6723;48.256;16.402;2024-03-23T07:49:48;9.87;;;8.87;;
13309;SDS011;6723;48.256;16.402;2024-03-23T07:52:14;13.30;;;10.60;;
13309;SDS011;6723;48.256;16.402;2024-03-23T07:54:40;11.63;;;9.00;;
13309;SDS011;6723;48.256;16.402;2024-03-23T07:57:05;10.77;;;7.80;;
13309;SDS011;6723;48.256;16.402;2024-03-23T07:59:31;10.93;;;8.00;;
13309;SDS011;6723;48.256;16.402;2024-03-23T08:01:59;10.20;;;7.67;;
13309;SDS011;6723;48.256;16.402;2024-03-23T08:04:25;9.83;;;7.40;;
13309;SDS011;6723;48.256;16.402;2024-03-23T08:06:52;10.27;;;7.50;;
13309;SDS011;6723;48.256;16.402;2024-03-23T08:09:17;8.32;;;7.45;;
13309;SDS011;6723;48.256;16.402;2024-03-23T08:11:43;9.73;;;7.68;;
13309;SDS011;6723;48.256;16.402;2024-03-23T08:14:11;8.55;;;7.70;;
13309;SDS011;6723;48.256;16.402;2024-03-23T08:16:37;7.85;;;7.00;;
13309;SDS011;6723;48.256;16.402;2024-03-23T08:19:03;7.75;;;6.97;;
13309;SDS011;6723;48.256;16.402;2024-03-23T08:21:30;8.20;;;6.45;;
13309;SDS011;6723;48.256;16.402;2024-03-23T08:23:56;7.88;;;7.07;;
13309;SDS011;6723;48.256;16.402;2024-03-23T08:26:22;7.47;;;6.32;;
13309;SDS011;6723;48.256;16.402;2024-03-23T08:28:47;8.10;;;6.93;;
13309;SDS011;6723;48.256;16.402;2024-03-23T08:31:13;10.07;;;6.60;;
13309;SDS011;6723;48.256;16.402;2024-03-23T08:33:39;7.57;;;6.87;;
13309;SDS011;6723;48.256;16.402;2024-03-23T08:36:08;7.40;;;6.63;;
13309;SDS011;6723;48.256;16.402;2024-03-23T08:38:37;8.47;;;6.57;;
13309;SDS011;6723;48.256;16.402;2024-03-23T08:41:08;7.87;;;6.93;;
13309;SDS011;6723;48.256;16.402;2024-03-23T08:43:39;8.43;;;7.63;;
13309;SDS011;6723;48.256;16.402;2024-03-23T08:46:09;8.60;;;6.83;;
13309;SDS011;6723;48.256;16.402;2024-03-23T08:48:38;10.03;;;6.57;;
13309;SDS011;6723;48.256;16.402;2024-03-23T08:51:08;7.37;;;6.67;;
13309;SDS011;6723;48.256;16.402;2024-03-23T08:53:35;10.50;;;6.70;;
13309;SDS011;6723;48.256;16.402;2024-03-23T08:56:01;9.10;;;6.17;;
13309;SDS011;6723;48.256;16.402;2024-03-23T08:58:28;6.67;;;6.03;;
13309;SDS011;6723;48.256;16.402;2024-03-23T09:00:56;7.70;;;6.13;;
13309;SDS011;6723;48.256;16.402;2024-03-23T09:03:28;7.17;;;5.80;;
13309;SDS011;6723;48.256;16.402;2024-03-23T09:05:54;7.27;;;5.60;;
13309;SDS011;6723;48.256;16.402;2024-03-23T09:08:20;7.37;;;5.80;;
13309;SDS011;6723;48.256;16.402;2024-03-23T09:10:47;10.90;;;8.87;;
13309;SDS011;6723;48.256;16.402;2024-03-23T09:13:13;13.93;;;10.10;;
13309;SDS011;6723;48.256;16.402;2024-03-23T09:15:49;7.97;;;6.30;;
13309;SDS011;6723;48.256;16.402;2024-03-23T09:18:16;18.30;;;14.70;;
13309;SDS011;6723;48.256;16.402;2024-03-23T09:20:42;11.57;;;9.13;;
13309;SDS011;6723;48.256;16.402;2024-03-23T09:23:08;11.70;;;8.33;;
13309;SDS011;6723;48.256;16.402;2024-03-23T09:25:37;7.67;;;5.27;;
13309;SDS011;6723;48.256;16.402;2024-03-23T09:28:04;10.70;;;6.47;;
13309;SDS011;6723;48.256;16.402;2024-03-23T09:30:35;8.33;;;5.80;;
13309;SDS011;6723;48.256;16.402;2024-03-23T09:33:07;6.20;;;4.63;;
13309;SDS011;6723;48.256;16.402;2024-03-23T09:35:36;8.47;;;4.90;;
13309;SDS011;6723;48.256;16.402;2024-03-23T09:38:02;5.27;;;4.63;;
13309;SDS011;6723;48.256;16.402;2024-03-23T09:40:28;5.37;;;4.50;;
13309;SDS011;6723;48.256;16.402;2024-03-23T09:42:54;5.53;;;3.77;;
13309;SDS011;6723;48.256;16.402;2024-03-23T09:45:21;5.73;;;3.70;;
13309;SDS011;6723;48.256;16.402;2024-03-23T09:47:51;4.63;;;3.37;;
13309;SDS011;6723;48.256;16.402;2024-03-23T09:50:18;6.10;;;3.43;;
13309;SDS011;6723;48.256;16.402;2024-03-23T09:52:47;4.57;;;3.43;;
13309;SDS011;6723;48.256;16.402;2024-03-23T09:55:13;3.40;;;3.10;;
13309;SDS011;6723;48.256;16.402;2024-03-23T09:57:40;4.63;;;2.87;;
13309;SDS011;6723;48.256;16.402;2024-03-23T10:00:06;3.73;;;2.73;;
13309;SDS011;6723;48.256;16.402;2024-03-23T10:02:33;5.20;;;2.97;;
13309;SDS011;6723;48.256;16.402;2024-03-23T10:04:59;3.43;;;2.70;;
13309;SDS011;6723;48.256;16.402;2024-03-23T10:07:25;2.83;;;2.50;;
13309;SDS011;6723;48.256;16.402;2024-03-23T10:09:53;3.30;;;2.63;;
13309;SDS011;6723;48.256;16.402;2024-03-23T10:12:20;3.47;;;2.73;;
13309;SDS011;6723;48.256;16.402;2024-03-23T10:14:46;4.53;;;2.43;;
13309;SDS011;6723;48.256;16.402;2024-03-23T10:17:15;6.17;;;2.60;;
13309;SDS011;6723;48.256;16.402;2024-03-23T10:19:48;3.73;;;2.30;;
13309;SDS011;6723;48.256;16.402;2024-03-23T10:22:17;5.80;;;2.93;;
13309;SDS011;6723;48.256;16.402;2024-03-23T10:24:46;4.17;;;2.67;;
13309;SDS011;6723;48.256;16.402;2024-03-23T10:27:16;3.50;;;2.70;;
13309;SDS011;6723;48.256;16.402;2024-03-23T10:29:44;3.43;;;2.80;;
13309;SDS011;6723;48.256;16.402;2024-03-23T10:32:14;2.97;;;2.53;;
13309;SDS011;6723;48.256;16.402;2024-03-23T10:34:40;4.60;;;2.30;;
13309;SDS011;6723;48.256;16.402;2024-03-23T10:37:07;2.50;;;2.30;;
13309;SDS011;6723;48.256;16.402;2024-03-23T10:42:04;2.90;;;2.60;;
13309;SDS011;6723;48.256;16.402;2024-03-23T10:44:31;5.30;;;2.87;;
13309;SDS011;6723;48.256;16.402;2024-03-23T10:46:57;3.40;;;2.70;;
13309;SDS011;6723;48.256;16.402;2024-03-23T10:49:33;4.97;;;3.00;;
13309;SDS011;6723;48.256;16.402;2024-03-23T10:52:02;3.97;;;2.83;;
13309;SDS011;6723;48.256;16.402;2024-03-23T10:54:32;3.57;;;2.77;;
13309;SDS011;6723;48.256;16.402;2024-03-23T10:57:06;5.77;;;2.83;;
13309;SDS011;6723;48.256;16.402;2024-03-23T10:59:39;3.70;;;2.60;;
13309;SDS011;6723;48.256;16.402;2024-03-23T11:02:06;5.43;;;3.23;;
13309;SDS011;6723;48.256;16.402;2024-03-23T11:04:38;3.87;;;2.93;;
13309;SDS011;6723;48.256;16.402;2024-03-23T11:09:49;3.77;;;2.30;;
13309;SDS011;6723;48.256;16.402;2024-03-23T11:14:50;3.80;;;2.30;;
13309;SDS011;6723;48.256;16.402;2024-03-23T11:17:23;6.90;;;2.90;;
13309;SDS011;6723;48.256;16.402;2024-03-23T11:19:53;5.68;;;4.05;;
13309;SDS011;6723;48.256;16.402;2024-03-23T11:25:13;2.88;;;1.90;;
13309;SDS011;6723;48.256;16.402;2024-03-23T11:27:47;2.87;;;1.77;;
13309;SDS011;6723;48.256;16.402;2024-03-23T11:32:52;4.13;;;1.60;;
13309;SDS011;6723;48.256;16.402;2024-03-23T11:35:24;3.60;;;1.67;;
13309;SDS011;6723;48.256;16.402;2024-03-23T11:40:41;5.83;;;1.63;;
13309;SDS011;6723;48.256;16.402;2024-03-23T11:43:08;4.80;;;1.60;;
13309;SDS011;6723;48.256;16.402;2024-03-23T11:45:37;4.23;;;1.63;;
13309;SDS011;6723;48.256;16.402;2024-03-23T11:48:06;8.43;;;1.60;;
13309;SDS011;6723;48.256;16.402;2024-03-23T11:50:32;4.57;;;1.43;;
13309;SDS011;6723;48.256;16.402;2024-03-23T11:55:45;3.53;;;1.87;;
13309;SDS011;6723;48.256;16.402;2024-03-23T11:58:11;10.23;;;2.00;;
13309;SDS011;6723;48.256;16.402;2024-03-23T12:00:38;2.33;;;1.60;;
13309;SDS011;6723;48.256;16.402;2024-03-23T12:03:05;3.33;;;1.50;;
13309;SDS011;6723;48.256;16.402;2024-03-23T12:05:31;3.47;;;1.57;;
13309;SDS011;6723;48.256;16.402;2024-03-23T12:08:16;6.63;;;2.17;;
13309;SDS011;6723;48.256;16.402;2024-03-23T12:10:47;4.73;;;1.80;;
13309;SDS011;6723;48.256;16.402;2024-03-23T12:13:15;3.67;;;1.70;;
13309;SDS011;6723;48.256;16.402;2024-03-23T12:15:42;3.47;;;1.90;;
13309;SDS011;6723;48.256;16.402;2024-03-23T12:18:09;3.23;;;1.70;;
13309;SDS011;6723;48.256;16.402;2024-03-23T12:20:35;4.73;;;1.87;;
13309;SDS011;6723;48.256;16.402;2024-03-23T12:23:05;6.57;;;1.87;;
13309;SDS011;6723;48.256;16.402;2024-03-23T12:25:36;4.00;;;1.90;;
13309;SDS011;6723;48.256;16.402;2024-03-23T12:28:03;3.73;;;2.00;;
13309;SDS011;6723;48.256;16.402;2024-03-23T12:30:31;2.23;;;1.73;;
13309;SDS011;6723;48.256;16.402;2024-03-23T12:33:03;4.10;;;1.57;;
13309;SDS011;6723;48.256;16.402;2024-03-23T12:35:29;4.73;;;1.80;;
13309;SDS011;6723;48.256;16.402;2024-03-23T12:37:55;3.43;;;1.80;;
13309;SDS011;6723;48.256;16.402;2024-03-23T12:40:21;3.90;;;1.77;;
13309;SDS011;6723;48.256;16.402;2024-03-23T12:42:47;5.00;;;2.20;;
13309;SDS011;6723;48.256;16.402;2024-03-23T12:45:13;4.37;;;2.00;;
13309;SDS011;6723;48.256;16.402;2024-03-23T12:47:38;2.23;;;1.50;;
13309;SDS011;6723;48.256;16.402;2024-03-23T12:50:07;2.17;;;1.57;;
13309;SDS011;6723;48.256;16.402;2024-03-23T12:52:34;4.17;;;1.80;;
13309;SDS011;6723;48.256;16.402;2024-03-23T12:55:01;4.83;;;1.80;;
13309;SDS011;6723;48.256;16.402;2024-03-23T12:57:31;4.63;;;2.20;;
13309;SDS011;6723;48.256;16.402;2024-03-23T12:59:58;3.83;;;1.63;;
13309;SDS011;6723;48.256;16.402;2024-03-23T13:02:24;5.70;;;2.23;;
13309;SDS011;6723;48.256;16.402;2024-03-23T13:04:50;8.87;;;2.37;;
13309;SDS011;6723;48.256;16.402;2024-03-23T13:07:17;8.43;;;1.70;;
13309;SDS011;6723;48.256;16.402;2024-03-23T13:09:43;5.73;;;1.00;;
13309;SDS011;6723;48.256;16.402;2024-03-23T13:12:10;4.33;;;1.10;;
13309;SDS011;6723;48.256;16.402;2024-03-23T13:14:38;4.77;;;0.90;;
13309;SDS011;6723;48.256;16.402;2024-03-23T13:17:04;7.00;;;0.90;;
13309;SDS011;6723;48.256;16.402;2024-03-23T13:19:31;1.83;;;0.90;;
13309;SDS011;6723;48.256;16.402;2024-03-23T13:21:57;1.77;;;0.90;;
13309;SDS011;6723;48.256;16.402;2024-03-23T13:24:27;3.73;;;0.70;;
13309;SDS011;6723;48.256;16.402;2024-03-23T13:26:53;3.70;;;0.73;;
13309;SDS011;6723;48.256;16.402;2024-03-23T13:29:20;1.90;;;0.80;;
13309;SDS011;6723;48.256;16.402;2024-03-23T13:31:47;2.53;;;0.93;;
13309;SDS011;6723;48.256;16.402;2024-03-23T13:34:14;4.27;;;0.90;;
13309;SDS011;6723;48.256;16.402;2024-03-23T13:36:41;1.77;;;0.60;;
13309;SDS011;6723;48.256;16.402;2024-03-23T13:39:10;2.73;;;1.60;;
13309;SDS011;6723;48.256;16.402;2024-03-23T13:41:40;1.83;;;0.97;;
13309;SDS011;6723;48.256;16.402;2024-03-23T13:44:06;4.30;;;1.20;;
13309;SDS011;6723;48.256;16.402;2024-03-23T13:46:33;1.30;;;1.20;;
13309;SDS011;6723;48.256;16.402;2024-03-23T13:48:59;5.33;;;1.23;;
13309;SDS011;6723;48.256;16.402;2024-03-23T13:51:26;1.33;;;1.07;;
13309;SDS011;6723;48.256;16.402;2024-03-23T13:53:55;1.50;;;1.00;;
13309;SDS011;6723;48.256;16.402;2024-03-23T13:56:25;2.30;;;1.10;;
13309;SDS011;6723;48.256;16.402;2024-03-23T13:58:51;1.87;;;1.17;;
13309;SDS011;6723;48.256;16.402;2024-03-23T14:01:17;1.30;;;0.87;;
13309;SDS011;6723;48.256;16.402;2024-03-23T14:03:43;2.20;;;1.00;;
13309;SDS011;6723;48.256;16.402;2024-03-23T14:06:09;1.37;;;0.90;;
13309;SDS011;6723;48.256;16.402;2024-03-23T14:08:36;1.97;;;1.20;;
13309;SDS011;6723;48.256;16.402;2024-03-23T14:11:04;1.63;;;1.00;;
13309;SDS011;6723;48.256;16.402;2024-03-23T14:13:31;1.57;;;1.27;;
13309;SDS011;6723;48.256;16.402;2024-03-23T14:15:57;2.00;;;1.17;;
13309;SDS011;6723;48.256;16.402;2024-03-23T14:18:24;2.90;;;1.10;;
13309;SDS011;6723;48.256;16.402;2024-03-23T14:20:56;2.77;;;1.37;;
13309;SDS011;6723;48.256;16.402;2024-03-23T14:23:26;1.20;;;1.10;;
13309;SDS011;6723;48.256;16.402;2024-03-23T14:25:59;1.53;;;1.13;;
13309;SDS011;6723;48.256;16.402;2024-03-23T14:28:25;2.63;;;1.10;;
13309;SDS011;6723;48.256;16.402;2024-03-23T14:30:51;1.20;;;1.00;;
13309;SDS011;6723;48.256;16.402;2024-03-23T14:33:20;1.63;;;1.20;;
13309;SDS011;6723;48.256;16.402;2024-03-23T14:35:52;1.70;;;1.23;;
13309;SDS011;6723;48.256;16.402;2024-03-23T14:38:24;2.43;;;1.20;;
13309;SDS011;6723;48.256;16.402;2024-03-23T14:40:50;1.80;;;1.37;;
13309;SDS011;6723;48.256;16.402;2024-03-23T14:43:19;1.70;;;1.60;;
13309;SDS011;6723;48.256;16.402;2024-03-23T14:48:38;1.27;;;1.17;;
13309;SDS011;6723;48.256;16.402;2024-03-23T14:51:05;1.93;;;1.63;;
13309;SDS011;6723;48.256;16.402;2024-03-23T14:53:32;7.97;;;1.70;;
13309;SDS011;6723;48.256;16.402;2024-03-23T14:56:02;5.30;;;2.13;;
13309;SDS011;6723;48.256;16.402;2024-03-23T14:58:28;1.83;;;1.73;;
13309;SDS011;6723;48.256;16.402;2024-03-23T15:01:04;4.57;;;1.97;;
13309;SDS011;6723;48.256;16.402;2024-03-23T15:03:34;1.70;;;1.20;;
13309;SDS011;6723;48.256;16.402;2024-03-23T15:06:08;1.63;;;1.50;;
13309;SDS011;6723;48.256;16.402;2024-03-23T15:08:34;1.40;;;1.30;;
13309;SDS011;6723;48.256;16.402;2024-03-23T15:11:05;1.60;;;0.90;;
13309;SDS011;6723;48.256;16.402;2024-03-23T15:13:35;1.17;;;1.07;;
13309;SDS011;6723;48.256;16.402;2024-03-23T15:16:01;1.13;;;1.03;;
13309;SDS011;6723;48.256;16.402;2024-03-23T15:18:30;2.00;;;1.20;;
13309;SDS011;6723;48.256;16.402;2024-03-23T15:21:01;1.37;;;1.27;;
13309;SDS011;6723;48.256;16.402;2024-03-23T15:23:29;2.37;;;1.43;;
13309;SDS011;6723;48.256;16.402;2024-03-23T15:25:59;3.77;;;1.60;;
13309;SDS011;6723;48.256;16.402;2024-03-23T15:28:26;4.10;;;1.60;;
13309;SDS011;6723;48.256;16.402;2024-03-23T15:31:03;1.73;;;1.50;;
13309;SDS011;6723;48.256;16.402;2024-03-23T15:33:29;1.97;;;1.70;;
13309;SDS011;6723;48.256;16.402;2024-03-23T15:35:58;3.47;;;1.90;;
13309;SDS011;6723;48.256;16.402;2024-03-23T15:38:25;2.03;;;1.37;;
13309;SDS011;6723;48.256;16.402;2024-03-23T15:40:51;2.13;;;1.37;;
13309;SDS011;6723;48.256;16.402;2024-03-23T15:43:17;1.67;;;1.20;;
13309;SDS011;6723;48.256;16.402;2024-03-23T15:45:43;1.93;;;1.37;;
13309;SDS011;6723;48.256;16.402;2024-03-23T15:48:09;1.57;;;1.30;;
13309;SDS011;6723;48.256;16.402;2024-03-23T15:50:35;2.20;;;1.00;;